Flight Track Log - Related Links

Times and Time Zones

All times are in EDT time to prevent confusion due to time zone crossing. See the UAL5914 flight status page for this flight to view local times or setup timezone preferences in your user account.

Time Position Orientation Groundspeed Altitude Reporting Facility
EDT Latitude Longitude Course Direction KTS MPH feet Rate Location/Type
Thu 12:14:53 PM 39.9167 -104.6833 75° East 179 206 6,900  Level Denver TRACON
Thu 12:15:47 PM 39.9333 -104.6333 66° East 225 259 8,200 1,696 Climbing Denver TRACON
Thu 12:16:25 PM 39.9433 -104.5678 79° East 248 285 9,500 1,140 Climbing Denver Center
Thu 12:17:27 PM 39.9500 -104.4658 85° East 277 319 10,100 290 Climbing Denver Center
Thu 12:18:29 PM 39.9589 -104.3417 85° East 316 364 10,100 484 Level Denver Center
Thu 12:19:31 PM 39.9675 -104.2203 85° East 333 383 11,100 1,161 Climbing Denver Center
Thu 12:20:00 PM 39.9741 -103.9461 75° East  Level FlightAware Approximate
Thu 12:20:33 PM 39.9794 -104.0792 84° East 361 415 12,500  Level Denver Center
Thu 12:21:35 PM 39.9942 -103.9500 81° East 361 415 14,500 2,226 Climbing Denver Center
Thu 12:22:37 PM 40.0131 -103.8156 80° East 351 404 17,100 1,597 Climbing Denver Center
Thu 12:23:39 PM 40.0306 -103.7053 78° East 339 390 17,800 871 Climbing Denver Center
Thu 12:24:41 PM 40.0553 -103.5592 77° East 371 427 18,900 1,210 Climbing Denver Center
Thu 12:25:43 PM 40.0769 -103.4269 78° East 388 447 20,300 1,597 Climbing Denver Center
Thu 12:26:45 PM 40.1008 -103.2756 78° East 383 441 22,200 1,544 Climbing Denver Center
Thu 12:27:59 PM 40.1217 -103.1458 78° East 381 438 23,800 1,577 Climbing Denver Center
Thu 12:29:02 PM 40.1489 -102.9747 78° East 376 433 25,800 1,680 Climbing Denver Center
Thu 12:30:04 PM 40.1733 -102.8228 78° East 383 441 27,300 1,306 Climbing Denver Center
Thu 12:31:06 PM 40.1936 -102.6919 78° East 384 442 28,500 829 Climbing Denver Center
Thu 12:32:07 PM 40.2097 -102.5819 79° East 386 444 29,000 484 Climbing Denver Center
Thu 12:33:10 PM 40.2386 -102.3950 78° East 409 471 29,500 672 Climbing Denver Center
Thu 12:34:12 PM 40.2608 -102.2517 78° East 419 482 30,400 968 Climbing Denver Center
Thu 12:35:14 PM 40.2850 -102.0842 79° East 419 482 31,500 1,016 Climbing Denver Center
Thu 12:36:16 PM 40.3069 -101.9392 79° East 424 488 32,500 1,016 Climbing Denver Center
Thu 12:37:18 PM 40.3325 -101.7697 79° East 426 490 33,600 968 Climbing Denver Center
Thu 12:38:20 PM 40.3539 -101.6228 79° East 428 493 34,500 677 Climbing Denver Center
Thu 12:39:22 PM 40.3778 -101.4517 80° East 429 494 35,000 242 Climbing Denver Center
Thu 12:40:24 PM 40.4000 -101.2978 79° East 448 516 35,000  Level Denver Center
Thu 12:41:26 PM 40.4269 -101.1106 79° East 468 539 35,000  Level Denver Center
Thu 12:42:28 PM 40.4503 -100.9464 79° East 479 551 35,000  Level Denver Center
Thu 12:43:30 PM 40.4758 -100.7522 80° East 487 560 35,000  Level Denver Center
Thu 12:44:32 PM 40.4975 -100.5875 80° East 485 558 35,000  Level Denver Center
Thu 12:45:34 PM 40.5214 -100.3944 81° East 483 556 35,000  Level Denver Center
Thu 12:46:37 PM 40.5419 -100.2303 81° East 480 552 35,000  Level Denver Center
Thu 12:47:39 PM 40.5664 -100.0386 80° East 479 551 35,000  Level Denver Center
Thu 12:48:41 PM 40.5856 -99.8736 81° East 480 552 35,000  Level Denver Center
Thu 12:49:43 PM 40.6081 -99.6967 80° East 478 550 35,000  Level Denver Center
Thu 12:50:45 PM 40.6283 -99.5236 81° East 480 552 35,000  Level Denver Center
Thu 12:51:47 PM 40.6533 -99.3164 81° East 480 552 35,000  Level Denver Center
Thu 12:52:49 PM 40.6725 -99.1433 82° East 480 552 35,000  Level Denver Center
Thu 12:53:43 PM 40.6889 -99.0050 81° East 482 555 35,000  Level Minneapolis Center
Thu 12:54:45 PM 40.7128 -98.7964 81° East 484 557 35,000  Level Minneapolis Center
Thu 12:55:47 PM 40.7317 -98.6214 82° East 485 558 35,000  Level Minneapolis Center
Thu 12:56:49 PM 40.7506 -98.4478 82° East 484 557 35,000  Level Minneapolis Center
Thu 12:57:51 PM 40.7694 -98.2728 82° East 484 557 35,000  Level Minneapolis Center
Thu 12:58:53 PM 40.7878 -98.0981 82° East 485 558 35,000  Level Minneapolis Center
Thu 12:59:55 PM 40.8061 -97.9239 82° East 482 555 35,000  Level Minneapolis Center
Thu 01:00:59 PM 40.8289 -97.7147 82° East 481 554 35,000  Level Minneapolis Center
Thu 01:02:01 PM 40.8450 -97.5392 83° East 482 555 35,000  Level Minneapolis Center
Thu 01:03:03 PM 40.8644 -97.3528 82° East 480 552 35,000  Level Minneapolis Center
Thu 01:04:05 PM 40.8806 -97.1778 83° East 480 552 35,000  Level Minneapolis Center
Thu 01:05:07 PM 40.8989 -97.0044 82° East 478 550 35,000  Level Minneapolis Center
Thu 01:06:09 PM 40.9144 -96.8294 83° East 480 552 35,000  Level Minneapolis Center
Thu 01:07:11 PM 40.9403 -96.6564 79° East 480 552 35,000  Level Minneapolis Center
Thu 01:08:13 PM 40.9861 -96.4481 74° East 492 566 35,000  Level Minneapolis Center
Thu 01:09:15 PM 41.0231 -96.2753 74° East 492 566 35,000  Level Minneapolis Center
Thu 01:10:17 PM 41.0592 -96.1039 74° East 490 564 35,000  Level Minneapolis Center
Thu 01:11:19 PM 41.0944 -95.9333 75° East 488 562 35,000  Level Minneapolis Center
Thu 01:12:21 PM 41.1292 -95.7636 75° East 488 562 35,000  Level Minneapolis Center
Thu 01:13:23 PM 41.1714 -95.5558 75° East 488 562 35,000  Level Minneapolis Center
Thu 01:14:24 PM 41.2075 -95.3822 74° East 488 562 35,000  Level Minneapolis Center
Thu 01:15:26 PM 41.2425 -95.2097 75° East 488 562 35,000  Level Minneapolis Center
Thu 01:16:28 PM 41.2764 -95.0381 75° East 484 557 35,000 -435 Level Minneapolis Center
Thu 01:17:30 PM 41.3253 -94.8708 69° East 484 557 34,100 -1,016 Descending Minneapolis Center
Thu 01:18:32 PM 41.3831 -94.7067 65° Northeast 487 560 32,900 -1,500 Descending Minneapolis Center
Thu 01:19:34 PM 41.4508 -94.5161 65° Northeast 480 552 31,000 -644 Descending Minneapolis Center
Thu 01:21:29 PM 41.5094 -94.2133 75° East 467 537 31,000  Level Chicago Center
Thu 01:22:40 PM 41.5400 -94.0133 78° East 467 537 31,000  Level Minneapolis Center
Thu 01:23:42 PM 41.5689 -93.8436 77° East 468 539 31,000  Level Minneapolis Center
Thu 01:24:44 PM 41.5972 -93.6708 78° East 471 542 31,000  Level Minneapolis Center
Thu 01:25:46 PM 41.6314 -93.4644 77° East 475 547 31,000 -629 Level Minneapolis Center
Thu 01:26:48 PM 41.6597 -93.2928 77° East 475 547 29,700 -1,403 Descending Minneapolis Center
Thu 01:27:50 PM 41.6853 -93.1283 78° East 462 532 28,100 -1,597 Descending Minneapolis Center
Thu 01:28:52 PM 41.7103 -92.9644 78° East 454 522 26,400 -1,984 Descending Minneapolis Center
Thu 01:29:54 PM 41.7367 -92.7997 78° East 451 519 24,000 -2,323 Descending Minneapolis Center
Thu 01:30:56 PM 41.7611 -92.6389 78° East 449 517 21,600 -2,504 Descending Minneapolis Center
Thu 01:31:49 PM 41.7833 -92.4772 80° East 446 513 19,200 -2,296 Descending Chicago Center
Thu 01:32:51 PM 41.7883 -92.3228 87° East 428 493 17,200 -2,177 Descending Chicago Center
Thu 01:33:53 PM 41.7936 -92.1703 87° East 417 480 14,700 -2,226 Descending Chicago Center
Thu 01:34:55 PM 41.7983 -92.0244 87° East 402 463 12,600 -1,935 Descending Chicago Center
Thu 01:35:57 PM 41.8097 -91.8739 84° East 347 399 10,700 -1,645 Descending Chicago Center
Thu 01:36:59 PM 41.8167 -91.7619 85° East 314 361 9,200 -968 Descending Chicago Center
Thu 01:38:01 PM 41.8000 -91.6639 103° East 280 322 8,700 -774 Descending Chicago Center
Thu 01:39:03 PM 41.7828 -91.5706 104° East 265 305 7,600 -1,597 Descending Chicago Center
Thu 01:40:05 PM 41.7586 -91.4600 106° East 261 300 5,400 -1,680 Descending Chicago Center
Thu 01:41:08 PM 41.7867 -91.3883 62° Northeast 270 311 4,100 -672 Descending Chicago Center
Thu 01:42:10 PM 41.8558 -91.3908 358° North 258 297 4,000 -532 Descending Chicago Center
Thu 01:43:12 PM 41.8997 -91.4489 315° West 261 300 3,000 -629 Descending Chicago Center
Thu 01:44:14 PM 41.8828 -91.5319 255° West 253 291 2,700 -339 Descending Chicago Center
Thu 01:45:16 PM 41.8842 -91.6078 271° West 225 259 2,300 -435 Descending Chicago Center
Thu 01:46:18 PM 41.8861 -91.6847 272° West 210 242 1,800 -484 Descending Chicago Center

Login

Don't have an account? Register now (free) for customized features, flight alerts, and more!